Delight, Arkansas
Current Conditions -  °F | °C
As of 11:56 PM on Friday 19 Dec 2014 (Local Time) from KADF Reporting Station
Scattered Clouds Scattered Clouds  
Wind Chill: 39°   Ceiling: Unl
Heat Index: 42°   Visibility: 10mi
Dew Point: 41°   Wind: 5mph
Humidity: 97%   Direction: 50°NE
Pressure: 30.24"   Gusts: NA
Location:  34.03°N, 93.5°W
Report Text: KADF 200556Z AUTO 05004KT 10SM SCT049 06/05 A3024 RMK AO2 51004 T00550050 10066 20055 400720050 SLP257
Loading
Personal Weather Stations






























Interactive Weather Map New forecast layout! Learn more

10-Day Weather Forecast

Advertisements
Track Severe Weather on mobile